Time;durP1;ratioP1;P1;durP2;ratioP2;P2;SDS_P1;SDS_P2;PMS_P1;PMS_P2;Temp;Humidity;BMP_temperature;BMP_pressure;BME280_temperature;BME280_humidity;BME280_pressure;Samples;Min_cycle;Max_cycle;Signal;HPM_P1;HPM_P2
2021/03/10 00:00:51;;;;;;;73.27;38.53;;;;;;;-3.02;66.52;99285.48;123789;1102;64863;-75
2021/03/10 00:03:17;;;;;;;75.15;43.20;;;;;;;-3.03;65.92;99281.98;123796;1102;64899;-75
2021/03/10 00:05:43;;;;;;;70.60;40.00;;;;;;;-3.05;66.45;99286.38;123774;1102;65314;-75
2021/03/10 00:08:10;;;;;;;73.03;40.70;;;;;;;-3.06;65.95;99292.45;123781;1102;64873;-75
2021/03/10 00:10:37;;;;;;;70.70;40.43;;;;;;;-3.09;66.80;99290.73;123716;1102;65216;-75
2021/03/10 00:13:03;;;;;;;67.82;39.55;;;;;;;-3.12;66.61;99290.75;123765;1102;64905;-76
2021/03/10 00:15:30;;;;;;;72.77;41.07;;;;;;;-3.11;66.42;99286.40;123409;1102;64994;-76
2021/03/10 00:17:56;;;;;;;71.00;39.47;;;;;;;-3.12;66.35;99293.36;123779;1102;64889;-76
2021/03/10 00:20:23;;;;;;;72.67;42.20;;;;;;;-3.14;66.38;99289.89;123806;1102;64963;-75
2021/03/10 00:22:49;;;;;;;67.03;42.53;;;;;;;-3.14;67.16;99278.61;123781;1102;65057;-75
2021/03/10 00:25:17;;;;;;;69.43;40.80;;;;;;;-3.14;66.49;99279.47;123741;1102;64888;-75
2021/03/10 00:27:44;;;;;;;77.87;42.60;;;;;;;-3.17;66.72;99276.89;123770;1102;64869;-75
2021/03/10 00:30:11;;;;;;;69.58;42.58;;;;;;;-3.18;67.67;99274.31;123404;1102;64984;-76
2021/03/10 00:32:38;;;;;;;69.97;43.13;;;;;;;-3.22;66.85;99278.66;123436;1102;64972;-76
2021/03/10 00:35:06;;;;;;;74.97;42.20;;;;;;;-3.22;66.84;99280.41;123458;1103;64991;-75
2021/03/10 00:37:33;;;;;;;75.00;42.57;;;;;;;-3.26;67.62;99273.50;123468;1102;65000;-74
2021/03/10 00:39:59;;;;;;;74.57;43.77;;;;;;;-3.28;67.76;99277.84;123759;1102;64882;-74
2021/03/10 00:42:26;;;;;;;81.63;45.27;;;;;;;-3.31;67.16;99284.80;123439;1105;65273;-74
2021/03/10 00:44:52;;;;;;;73.77;44.27;;;;;;;-3.34;67.71;99286.58;123447;1102;64911;-75
2021/03/10 00:47:18;;;;;;;75.47;43.73;;;;;;;-3.35;67.85;99283.08;123780;1102;64981;-75
2021/03/10 00:49:45;;;;;;;73.30;44.10;;;;;;;-3.33;68.05;99283.08;123464;1102;64972;-75
2021/03/10 00:52:11;;;;;;;76.10;44.10;;;;;;;-3.32;67.68;99276.98;123786;1102;64911;-75
2021/03/10 00:54:40;;;;;;;72.90;45.90;;;;;;;-3.36;67.76;99276.15;123787;1102;65393;-75
2021/03/10 00:57:08;;;;;;;75.63;46.27;;;;;;;-3.43;67.71;99268.38;123775;1102;64895;-75
2021/03/10 00:59:35;;;;;;;81.37;47.03;;;;;;;-3.45;67.95;99272.73;123800;1102;65004;-75
2021/03/10 01:02:02;;;;;;;78.97;45.00;;;;;;;-3.48;68.17;99278.82;123796;1102;64892;-76
2021/03/10 01:04:28;;;;;;;79.95;46.50;;;;;;;-3.48;68.82;99265.80;123438;1102;64923;-76
2021/03/10 01:06:55;;;;;;;83.70;48.50;;;;;;;-3.48;68.82;99273.61;123795;1102;64928;-75
2021/03/10 01:09:22;;;;;;;79.20;46.53;;;;;;;-3.45;68.98;99272.73;123801;1101;64910;-75
2021/03/10 01:11:49;;;;;;;83.57;46.37;;;;;;;-3.45;69.05;99267.52;123416;1102;64902;-76
2021/03/10 01:14:15;;;;;;;78.40;45.80;;;;;;;-3.47;68.24;99266.69;123795;1102;64931;-76
2021/03/10 01:16:42;;;;;;;81.90;48.30;;;;;;;-3.51;68.39;99276.23;123798;1102;64984;-75
2021/03/10 01:19:09;;;;;;;75.60;46.07;;;;;;;-3.50;69.06;99275.38;123790;1102;64917;-76
2021/03/10 01:21:36;;;;;;;81.70;46.80;;;;;;;-3.53;68.70;99275.38;123431;1102;64905;-75
2021/03/10 01:24:06;;;;;;;81.77;43.80;;;;;;;-3.57;68.68;99266.72;123805;1102;64885;-75
2021/03/10 01:26:32;;;;;;;78.00;45.17;;;;;;;-3.58;68.58;99269.33;123828;1102;64915;-76
2021/03/10 01:28:59;;;;;;;76.30;44.60;;;;;;;-3.59;69.42;99268.47;123803;1102;64895;-75
2021/03/10 01:31:25;;;;;;;79.37;45.43;;;;;;;-3.59;69.20;99267.61;123838;1102;64985;-75
2021/03/10 01:33:51;;;;;;;84.05;44.83;;;;;;;-3.61;69.59;99259.78;123820;1102;64914;-75
2021/03/10 01:36:18;;;;;;;81.20;46.03;;;;;;;-3.63;69.44;99258.09;123769;1102;65094;-75
2021/03/10 01:38:44;;;;;;;75.00;44.00;;;;;;;-3.64;69.04;99261.55;123831;1101;64988;-75
2021/03/10 01:41:14;;;;;;;75.70;43.67;;;;;;;-3.68;68.83;99258.11;123444;1101;64956;-76
2021/03/10 01:43:40;;;;;;;77.87;44.18;;;;;;;-3.70;69.79;99249.44;123823;1102;64889;-77
2021/03/10 01:46:08;;;;;;;78.60;44.55;;;;;;;-3.75;69.02;99262.47;123765;1102;64889;-75
2021/03/10 01:48:35;;;;;;;81.13;45.53;;;;;;;-3.75;69.91;99259.00;123790;1102;65338;-75
2021/03/10 01:51:05;;;;;;;75.53;45.57;;;;;;;-3.78;69.81;99259.89;123834;1101;64873;-76
2021/03/10 01:53:33;;;;;;;78.43;46.57;;;;;;;-3.80;69.22;99260.77;123764;1102;64902;-76
2021/03/10 01:56:01;;;;;;;90.00;49.97;;;;;;;-3.84;69.34;99259.07;123795;1102;64860;-77
2021/03/10 01:58:29;;;;;;;85.17;49.23;;;;;;;-3.90;70.24;99257.33;123461;1102;64934;-75
2021/03/10 02:00:55;;;;;;;81.57;50.00;;;;;;;-3.90;69.62;99253.87;123742;1102;65065;-75
2021/03/10 02:03:22;;;;;;;83.87;49.67;;;;;;;-3.93;69.74;99259.09;123811;1102;64902;-75
2021/03/10 02:05:49;;;;;;;76.23;48.70;;;;;;;-3.93;69.76;99254.75;123827;1102;64930;-75
2021/03/10 02:08:50;;;;;;;82.60;49.07;;;;;;;-3.91;69.45;99253.01;123732;1102;64908;-76
2021/03/10 02:11:43;;;;;;;78.25;47.55;;;;;;;-3.90;69.61;99248.66;123485;1102;64918;-74
2021/03/10 02:14:18;;;;;;;77.10;46.67;;;;;;;-3.91;70.21;99253.01;123790;1101;65262;-75
2021/03/10 02:16:57;;;;;;;83.35;45.90;;;;;;;-3.93;70.41;99252.14;123794;1102;65380;-75
2021/03/10 02:20:01;;;;;;;73.17;44.53;;;;;;;-3.99;69.92;99246.98;123360;1104;64921;-75
2021/03/10 02:22:45;;;;;;;76.35;46.20;;;;;;;-4.00;70.17;99253.06;123786;1102;64898;-75
2021/03/10 02:25:32;;;;;;;84.47;47.77;;;;;;;-4.05;69.84;99249.61;123771;1102;64905;-75
2021/03/10 02:28:02;;;;;;;71.80;44.63;;;;;;;-4.06;70.37;99256.53;123773;1102;65144;-75
2021/03/10 02:30:31;;;;;;;;;;;;;;;-4.08;69.96;99255.70;123509;1102;64937;-75
2021/03/10 02:33:01;;;;;;;78.57;45.12;;;;;;;-4.09;70.46;99253.09;123779;1102;64860;-75
2021/03/10 02:35:30;;;;;;;75.42;45.45;;;;;;;-4.10;70.40;99253.97;123466;1102;64991;-75
2021/03/10 02:37:59;;;;;;;74.17;43.90;;;;;;;-4.09;69.95;99253.09;123799;1102;64911;-75
2021/03/10 02:40:28;;;;;;;73.23;43.97;;;;;;;-4.07;70.06;99246.14;123774;1102;65346;-75
2021/03/10 02:42:56;;;;;;;71.47;44.00;;;;;;;-4.09;70.32;99253.09;123766;1102;64888;-76
2021/03/10 02:45:27;;;;;;;72.15;44.55;;;;;;;-4.09;70.90;99255.69;123772;1102;64921;-75
2021/03/10 02:47:56;;;;;;;75.57;42.43;;;;;;;-4.06;70.63;99258.27;123793;1102;64857;-75
2021/03/10 02:50:23;;;;;;;72.87;42.33;;;;;;;-4.06;70.77;99260.88;123819;1101;64885;-75
2021/03/10 02:52:52;;;;;;;74.30;42.03;;;;;;;-4.05;70.71;99260.03;123719;1102;64889;-76
2021/03/10 02:55:19;;;;;;;71.43;42.27;;;;;;;-4.06;70.50;99258.27;123805;1101;65020;-75
2021/03/10 02:57:46;;;;;;;76.40;44.53;;;;;;;-4.08;70.42;99252.20;123785;1102;64856;-76
2021/03/10 03:00:26;;;;;;;75.03;42.33;;;;;;;-4.10;71.13;99257.44;123838;1102;65014;-76
2021/03/10 03:02:52;;;;;;;;;;;;;;;-4.10;70.86;99253.97;123874;1102;64857;-76
2021/03/10 03:05:19;;;;;;;71.57;41.37;;;;;;;-4.11;70.99;99255.68;123366;1102;64931;-77
2021/03/10 03:07:47;;;;;;;75.53;42.63;;;;;;;-4.13;70.42;99254.84;123756;1102;65273;-76
2021/03/10 03:10:18;;;;;;;71.60;42.45;;;;;;;-4.15;70.61;99256.58;123409;1102;64975;-76
2021/03/10 03:12:46;;;;;;;74.35;45.25;;;;;;;-4.13;70.74;99260.05;123797;1102;64931;-75
2021/03/10 03:15:24;;;;;;;82.07;47.00;;;;;;;-4.12;70.98;99260.91;123779;1102;64860;-75
2021/03/10 03:17:52;;;;;;;76.70;46.30;;;;;;;-4.16;70.66;99262.67;123427;1102;65001;-76
2021/03/10 03:20:20;;;;;;;78.27;46.90;;;;;;;-4.16;71.37;99259.17;123472;1102;64915;-75
2021/03/10 03:22:51;;;;;;;81.97;48.90;;;;;;;-4.20;70.51;99259.19;123785;1102;64889;-75
2021/03/10 03:25:19;;;;;;;79.33;47.23;;;;;;;-4.23;71.42;99256.60;123841;1102;64889;-75
2021/03/10 03:27:59;;;;;;;87.20;51.97;;;;;;;-4.22;71.38;99257.46;123797;1102;64934;-75
2021/03/10 03:30:28;;;;;;;80.90;48.07;;;;;;;-4.25;71.14;99254.87;123786;1102;64834;-75
2021/03/10 03:32:56;;;;;;;95.62;53.08;;;;;;;-4.25;71.54;99260.08;123800;1101;64937;-76
2021/03/10 03:35:23;;;;;;;91.97;51.37;;;;;;;-4.26;71.20;99255.77;123842;1102;64892;-76
2021/03/10 03:37:52;;;;;;;99.37;52.70;;;;;;;-4.28;71.80;99253.15;123953;1102;64914;-73
2021/03/10 03:40:21;;;;;;;110.63;61.10;;;;;;;-4.27;71.17;99259.21;125985;1102;63635;-74
2021/03/10 03:42:48;;;;;;;93.82;52.03;;;;;;;-4.26;71.50;99260.97;125041;1102;64994;-74
2021/03/10 03:45:17;;;;;;;99.67;55.80;;;;;;;-4.31;71.75;99253.16;123755;1102;64931;-76
2021/03/10 03:47:50;;;;;;;86.20;50.43;;;;;;;-4.33;71.58;99259.23;123779;1102;64905;-76
2021/03/10 03:50:17;;;;;;;107.83;57.63;;;;;;;-4.36;71.94;99269.66;123835;1102;64905;-78
2021/03/10 03:52:44;;;;;;;92.87;51.67;;;;;;;-4.41;71.43;99262.72;123812;1102;64893;-76
2021/03/10 03:55:12;;;;;;;80.93;49.70;;;;;;;-4.43;71.33;99263.59;123808;1102;64909;-75
2021/03/10 03:57:39;;;;;;;84.47;48.53;;;;;;;-4.45;72.12;99267.92;123420;1103;64926;-75
2021/03/10 04:00:17;;;;;;;82.00;49.43;;;;;;;-4.49;71.42;99271.42;123434;1102;64918;-75
2021/03/10 04:02:45;;;;;;;89.87;52.70;;;;;;;-4.49;71.74;99274.02;123807;1102;64902;-75
2021/03/10 04:05:14;;;;;;;83.95;49.80;;;;;;;-4.49;71.17;99272.28;123445;1102;64953;-76
2021/03/10 04:07:57;;;;;;;79.83;48.53;;;;;;;-4.51;71.83;99276.61;123768;1102;64831;-75
2021/03/10 04:10:26;;;;;;;79.60;48.37;;;;;;;-4.52;71.39;99277.49;123407;1102;64885;-74
2021/03/10 04:12:53;;;;;;;77.05;49.30;;;;;;;-4.53;71.54;99269.67;123921;1102;64924;-75
2021/03/10 04:15:20;;;;;;;79.63;48.33;;;;;;;-4.52;71.80;99274.89;123419;1102;64909;-75
2021/03/10 04:17:46;;;;;;;78.17;47.80;;;;;;;-4.57;71.72;99274.03;123856;1102;64909;-75
2021/03/10 04:20:16;;;;;;;84.87;51.27;;;;;;;-4.59;72.27;99274.90;123759;1102;65471;-76
2021/03/10 04:22:43;;;;;;;80.15;49.10;;;;;;;-4.61;72.18;99271.42;123479;1102;64851;-76
2021/03/10 04:25:11;;;;;;;79.85;49.15;;;;;;;-4.60;72.45;99278.38;123456;1105;64894;-77
2021/03/10 04:27:38;;;;;;;84.07;51.43;;;;;;;-4.64;72.48;99277.50;123842;1102;64892;-76
2021/03/10 04:30:08;;;;;;;87.63;52.60;;;;;;;-4.64;72.43;99277.50;123830;1102;65013;-75
2021/03/10 04:32:35;;;;;;;90.90;53.67;;;;;;;-4.64;72.48;99278.36;123808;1102;64908;-75
2021/03/10 04:35:02;;;;;;;78.77;48.23;;;;;;;-4.67;72.35;99277.51;123409;1102;65049;-76
2021/03/10 04:37:29;;;;;;;84.90;50.97;;;;;;;-4.69;73.00;99280.09;123742;1101;65010;-75
2021/03/10 04:39:55;;;;;;;81.83;48.40;;;;;;;-4.68;73.05;99276.65;123806;1102;64933;-75
2021/03/10 04:42:21;;;;;;;78.60;49.43;;;;;;;-4.68;72.85;99286.19;123784;1102;65343;-75
2021/03/10 04:44:48;;;;;;;83.43;50.23;;;;;;;-4.67;72.40;99288.77;123435;1102;64962;-75
2021/03/10 04:47:14;;;;;;;78.40;51.93;;;;;;;-4.69;73.00;99290.50;123746;1102;64947;-75
2021/03/10 04:49:40;;;;;;;86.97;52.73;;;;;;;-4.72;72.98;99300.05;123411;1102;64908;-76
2021/03/10 04:52:07;;;;;;;88.80;51.80;;;;;;;-4.72;73.25;99284.45;123451;1102;64975;-76
2021/03/10 04:54:33;;;;;;;88.43;50.77;;;;;;;-4.71;72.34;99292.26;123824;1102;64911;-76
2021/03/10 04:57:00;;;;;;;90.77;50.90;;;;;;;-4.71;72.48;99287.06;123793;1101;64931;-76
2021/03/10 04:59:26;;;;;;;87.17;50.63;;;;;;;-4.73;72.67;99285.33;123770;1102;64920;-76
2021/03/10 05:01:52;;;;;;;90.20;52.10;;;;;;;-4.75;72.87;99287.05;123777;1102;64853;-76
2021/03/10 05:04:19;;;;;;;89.97;51.03;;;;;;;-4.76;73.36;99287.94;123485;1102;64953;-75
2021/03/10 05:06:45;;;;;;;79.73;50.33;;;;;;;-4.75;72.94;99293.11;123808;1102;64985;-76
2021/03/10 05:09:12;;;;;;;91.23;50.93;;;;;;;-4.73;73.50;99299.19;123660;1102;65059;-76
2021/03/10 05:11:38;;;;;;;88.00;51.00;;;;;;;-4.72;72.70;99307.84;123446;1102;64908;-76
2021/03/10 05:14:05;;;;;;;86.67;50.13;;;;;;;-4.74;72.91;99306.97;123806;1102;64899;-76
2021/03/10 05:16:32;;;;;;;85.07;49.00;;;;;;;-4.74;72.84;99301.77;123812;1102;64908;-75
2021/03/10 05:18:58;;;;;;;86.70;49.80;;;;;;;-4.69;73.18;99295.70;123813;1102;64891;-75
2021/03/10 05:21:24;;;;;;;83.30;49.10;;;;;;;-4.64;73.31;99306.10;123399;1102;64987;-75
2021/03/10 05:23:51;;;;;;;85.03;52.23;;;;;;;-4.59;73.46;99300.91;123810;1102;64966;-77
2021/03/10 05:26:17;;;;;;;86.70;50.77;;;;;;;-4.54;73.54;99306.97;123843;1102;64937;-76
2021/03/10 05:28:44;;;;;;;91.30;52.30;;;;;;;-4.52;73.19;99313.05;123774;1101;64934;-75
2021/03/10 05:31:10;;;;;;;87.80;53.15;;;;;;;-4.46;72.74;99300.87;123493;1102;64963;-75
2021/03/10 05:33:36;;;;;;;85.50;51.83;;;;;;;-4.30;73.22;99304.31;123441;1102;64882;-76
2021/03/10 05:36:04;;;;;;;100.10;54.53;;;;;;;-4.13;72.86;99296.48;123783;1102;64877;-75
2021/03/10 05:38:32;;;;;;;91.73;55.17;;;;;;;-3.97;72.73;99303.36;123479;1102;64889;-75
2021/03/10 05:40:59;;;;;;;98.45;57.20;;;;;;;-3.81;71.96;99308.52;123784;1102;64885;-75
2021/03/10 05:43:25;;;;;;;113.27;61.57;;;;;;;-3.70;72.35;99309.33;123373;1102;64828;-75
2021/03/10 05:45:52;;;;;;;99.73;57.40;;;;;;;-3.59;71.62;99306.67;123465;1102;64981;-75
2021/03/10 05:48:18;;;;;;;95.63;55.40;;;;;;;-3.44;71.83;99309.20;123815;1102;64888;-75
2021/03/10 05:50:45;;;;;;;92.87;54.73;;;;;;;-3.32;71.72;99314.36;123455;1102;64888;-75
2021/03/10 05:53:15;;;;;;;87.30;51.73;;;;;;;-3.21;72.07;99303.86;123409;1102;64891;-75
2021/03/10 05:55:42;;;;;;;84.70;50.30;;;;;;;-3.20;71.38;99310.80;123388;1102;65081;-75
2021/03/10 05:58:12;;;;;;;80.17;51.57;;;;;;;-3.23;71.18;99316.03;123800;1102;64921;-77
2021/03/10 06:00:46;;;;;;;83.60;51.00;;;;;;;-3.28;71.40;99307.37;123801;1102;65266;-76
2021/03/10 06:03:15;;;;;;;87.73;50.07;;;;;;;-3.28;71.99;99306.52;123454;1102;64857;-76
2021/03/10 06:05:44;;;;;;;93.77;55.17;;;;;;;-3.29;71.44;99313.48;123803;1102;64962;-76
2021/03/10 06:08:15;;;;;;;84.13;51.60;;;;;;;-3.26;71.93;99310.84;123819;1102;65045;-75
2021/03/10 06:10:42;;;;;;;81.30;50.40;;;;;;;-3.22;71.39;99319.50;123422;1102;64971;-77
2021/03/10 06:13:19;;;;;;;83.10;51.37;;;;;;;-3.20;71.82;99318.62;123814;1102;64911;-77
2021/03/10 06:15:46;;;;;;;79.30;49.80;;;;;;;-3.16;71.14;99319.45;123843;1102;64857;-76
2021/03/10 06:18:34;;;;;;;84.90;48.97;;;;;;;-3.15;71.41;99319.45;123872;1102;64978;-75
2021/03/10 06:21:11;;;;;;;82.33;49.70;;;;;;;-3.09;71.22;99324.62;123767;1102;64908;-75
2021/03/10 06:23:56;;;;;;;89.10;53.83;;;;;;;-3.01;71.58;99335.00;123808;1100;65222;-77
2021/03/10 06:26:26;;;;;;;90.23;55.50;;;;;;;-2.93;70.81;99327.12;123823;1102;64984;-76
2021/03/10 06:28:54;;;;;;;83.47;52.53;;;;;;;-2.87;70.75;99329.67;123810;1102;64905;-75
2021/03/10 06:31:29;;;;;;;90.97;54.93;;;;;;;-2.79;71.34;99338.34;123416;1102;65341;-76
2021/03/10 06:34:04;;;;;;;90.33;55.83;;;;;;;-2.75;70.67;99339.17;123799;1102;64889;-76
2021/03/10 06:36:41;;;;;;;95.03;57.37;;;;;;;-2.67;70.85;99343.44;123836;1102;64889;-77
2021/03/10 06:39:10;;;;;;;89.67;54.40;;;;;;;-2.56;70.80;99350.31;123385;1102;64921;-76
2021/03/10 06:41:39;;;;;;;108.15;63.15;;;;;;;-2.51;70.85;99352.00;123859;1102;64834;-75
2021/03/10 06:44:15;;;;;;;101.63;60.40;;;;;;;-2.44;70.53;99356.30;123812;1102;64879;-76
2021/03/10 06:46:56;;;;;;;93.63;55.10;;;;;;;-2.32;70.44;99344.02;123744;1100;65033;-75
2021/03/10 06:49:25;;;;;;;90.87;55.43;;;;;;;-2.22;70.89;99350.88;123444;1101;64940;-76
2021/03/10 06:51:55;;;;;;;92.50;59.30;;;;;;;-2.16;70.35;99357.78;123801;1102;64921;-75
2021/03/10 06:54:23;;;;;;;94.87;56.60;;;;;;;-2.12;70.02;99352.52;123786;1101;64905;-76
2021/03/10 06:57:10;;;;;;;88.50;54.57;;;;;;;-2.05;70.33;99356.81;123473;1105;64927;-76
2021/03/10 06:59:41;;;;;;;90.07;55.43;;;;;;;-1.96;70.59;99357.59;123833;1101;65005;-76
2021/03/10 07:02:22;;;;;;;92.93;56.27;;;;;;;-1.88;70.53;99360.98;123754;1102;64985;-76
2021/03/10 07:04:51;;;;;;;92.57;55.10;;;;;;;-1.76;69.72;99366.09;123833;1102;64934;-75
2021/03/10 07:07:18;;;;;;;84.63;54.60;;;;;;;-1.67;69.36;99368.58;123869;1102;64908;-75
2021/03/10 07:09:46;;;;;;;88.45;55.60;;;;;;;-1.64;69.18;99373.77;123827;1102;64931;-75
2021/03/10 07:12:15;;;;;;;92.53;53.50;;;;;;;-1.58;69.92;99372.83;123448;1102;64959;-76
2021/03/10 07:14:42;;;;;;;84.30;52.30;;;;;;;-1.55;69.66;99378.05;123830;1102;65221;-76
2021/03/10 07:17:14;;;;;;;87.40;53.25;;;;;;;-1.47;68.98;99377.95;123830;1102;65013;-76
2021/03/10 07:19:44;;;;;;;88.67;52.87;;;;;;;-1.38;68.76;99375.20;123429;1101;64991;-75
2021/03/10 07:22:17;;;;;;;84.43;53.93;;;;;;;-1.30;69.45;99370.75;123820;1102;64994;-78
2021/03/10 07:25:07;;;;;;;85.27;54.80;;;;;;;-1.19;68.90;99381.06;123823;1102;64934;-76
2021/03/10 07:27:42;;;;;;;86.77;53.10;;;;;;;-1.08;68.80;99380.91;123883;1102;64882;-76
2021/03/10 07:30:10;;;;;;;81.90;51.33;;;;;;;-0.98;68.69;99382.52;123869;1102;64982;-77
2021/03/10 07:32:37;;;;;;;86.13;51.33;;;;;;;-0.91;68.95;99387.65;123826;1102;64835;-77
2021/03/10 07:35:06;;;;;;;83.90;53.07;;;;;;;-0.84;68.14;99391.05;123798;1101;64908;-77
2021/03/10 07:37:34;;;;;;;83.00;52.27;;;;;;;-0.73;68.50;99381.29;123812;1102;64908;-77
2021/03/10 07:40:14;;;;;;;86.83;54.30;;;;;;;-0.59;68.69;99386.30;123820;1101;64988;-76
2021/03/10 07:42:57;;;;;;;81.87;49.33;;;;;;;-0.51;67.91;99381.81;123771;1102;64982;-76
2021/03/10 07:45:27;;;;;;;77.23;47.90;;;;;;;-0.46;67.41;99385.22;123859;1102;64937;-77
2021/03/10 07:47:58;;;;;;;71.85;44.50;;;;;;;-0.41;67.12;99385.16;123811;1101;64896;-77
2021/03/10 07:50:40;;;;;;;74.37;45.07;;;;;;;-0.38;67.33;99389.48;123802;1101;65055;-76
2021/03/10 07:53:07;;;;;;;71.93;44.57;;;;;;;-0.34;66.72;99389.41;123770;1101;65010;-76
2021/03/10 07:55:46;;;;;;;70.95;45.85;;;;;;;-0.27;67.32;99388.39;123360;1102;65013;-76
2021/03/10 07:58:26;;;;;;;77.65;47.00;;;;;;;-0.16;66.98;99388.21;123766;1102;65346;-76
2021/03/10 08:00:52;;;;;;;78.27;45.23;;;;;;;-0.07;66.67;99393.30;123815;1102;64943;-76
2021/03/10 08:03:33;;;;;;;67.70;43.35;;;;;;;-0.01;66.71;99387.09;123726;1102;65029;-76
2021/03/10 08:06:05;;;;;;;71.17;41.47;;;;;;;0.06;66.53;99399.20;123872;1102;64909;-76
2021/03/10 08:08:39;;;;;;;59.17;39.93;;;;;;;0.10;65.93;99400.85;123780;1102;64920;-76
2021/03/10 08:11:17;;;;;;;59.55;38.75;;;;;;;0.14;65.13;99406.92;123762;1102;64917;-78
2021/03/10 08:13:47;;;;;;;66.35;41.00;;;;;;;0.16;64.80;99395.52;123782;1102;64886;-76
2021/03/10 08:16:13;;;;;;;59.48;36.17;;;;;;;0.21;64.86;99400.66;123792;1101;64888;-76
2021/03/10 08:18:46;;;;;;;61.23;37.97;;;;;;;0.30;65.03;99397.02;123400;1102;64962;-76
2021/03/10 08:21:17;;;;;;;57.20;33.90;;;;;;;0.36;63.82;99402.99;123802;1102;64902;-76
2021/03/10 08:23:43;;;;;;;53.77;35.10;;;;;;;0.38;63.93;99387.25;123815;1102;64853;-76
2021/03/10 08:26:10;;;;;;;53.20;34.67;;;;;;;0.42;63.29;99381.03;123428;1102;65013;-76
2021/03/10 08:28:39;;;;;;;57.70;36.23;;;;;;;0.48;64.27;99383.56;123421;1102;64934;-76
2021/03/10 08:31:10;;;;;;;56.83;34.40;;;;;;;0.57;63.31;99375.48;123813;1102;64994;-75
2021/03/10 08:33:47;;;;;;;50.07;31.73;;;;;;;0.71;63.77;99384.83;123858;1102;64909;-76
2021/03/10 08:36:15;;;;;;;43.20;28.57;;;;;;;0.84;63.63;99389.81;123409;1102;64981;-76
2021/03/10 08:38:42;;;;;;;47.33;30.30;;;;;;;0.93;63.38;99390.52;123748;1102;64860;-75
2021/03/10 08:41:09;;;;;;;45.53;28.40;;;;;;;1.02;63.39;99385.05;123792;1102;64914;-76
2021/03/10 08:43:36;;;;;;;42.23;28.00;;;;;;;1.13;62.31;99390.91;123761;1102;64972;-75
2021/03/10 08:46:03;;;;;;;35.23;22.70;;;;;;;1.25;62.44;99390.65;123384;1102;65358;-75
2021/03/10 08:48:34;;;;;;;45.30;29.50;;;;;;;1.38;62.78;99395.63;123770;1102;64905;-76
2021/03/10 08:51:03;;;;;;;50.33;30.23;;;;;;;1.45;61.89;99391.94;123783;1101;64908;-76
2021/03/10 08:53:30;;;;;;;42.17;28.77;;;;;;;1.50;61.67;99385.70;123803;1101;64861;-76
2021/03/10 08:56:09;;;;;;;31.05;20.80;;;;;;;1.53;60.76;99390.87;123362;1102;64917;-76
2021/03/10 08:58:35;;;;;;;42.40;23.60;;;;;;;1.56;60.37;99392.57;123402;1102;64940;-75
2021/03/10 09:01:12;;;;;;;39.23;26.57;;;;;;;1.62;60.86;99391.55;123771;1102;64914;-74
2021/03/10 09:03:43;;;;;;;25.20;16.13;;;;;;;1.67;58.79;99398.42;123747;1101;64831;-75
2021/03/10 09:06:10;;;;;;;26.77;18.13;;;;;;;1.70;59.35;99392.23;123406;1102;64908;-75
2021/03/10 09:08:37;;;;;;;30.80;19.50;;;;;;;1.70;58.44;99392.23;123772;1102;64903;-76
2021/03/10 09:11:04;;;;;;;19.20;12.23;;;;;;;1.72;57.02;99391.29;123764;1102;64905;-76
2021/03/10 09:13:30;;;;;;;23.67;16.33;;;;;;;1.71;55.79;99383.44;123792;1102;64885;-75
2021/03/10 09:16:07;;;;;;;23.23;15.83;;;;;;;1.73;56.36;99379.87;123777;1102;64860;-76
2021/03/10 09:18:35;;;;;;;9.40;6.57;;;;;;;1.80;55.00;99377.11;123770;1102;64995;-76
2021/03/10 09:21:02;;;;;;;14.27;10.20;;;;;;;1.79;53.08;99378.88;123772;1102;64847;-75
2021/03/10 09:23:29;;;;;;;17.47;11.70;;;;;;;1.80;54.18;99383.22;123791;1102;64889;-76
2021/03/10 09:25:56;;;;;;;15.30;11.17;;;;;;;1.83;53.26;99383.14;123769;1102;65468;-76
2021/03/10 09:28:32;;;;;;;14.10;10.40;;;;;;;1.80;52.22;99383.22;123757;1102;64892;-76
2021/03/10 09:30:59;;;;;;;17.87;12.63;;;;;;;1.83;51.40;99385.77;123756;1102;65071;-76
2021/03/10 09:33:28;;;;;;;16.57;11.17;;;;;;;1.79;51.28;99376.25;123404;1102;64902;-77
2021/03/10 09:36:00;;;;;;;21.03;12.93;;;;;;;1.81;51.27;99382.30;123456;1102;64992;-76
2021/03/10 09:38:31;;;;;;;21.10;15.13;;;;;;;1.89;51.79;99380.34;123415;1105;64867;-76
2021/03/10 09:41:01;;;;;;;21.53;15.00;;;;;;;2.03;51.46;99381.75;123834;1102;65011;-75
2021/03/10 09:43:30;;;;;;;20.00;13.03;;;;;;;2.10;48.35;99378.92;123473;1102;65013;-75
2021/03/10 09:46:03;;;;;;;21.52;15.38;;;;;;;2.10;51.22;99375.44;123512;1102;64885;-76
2021/03/10 09:48:36;;;;;;;22.30;14.50;;;;;;;2.22;52.16;99376.90;123403;1102;64888;-75
2021/03/10 09:51:15;;;;;;;23.33;15.53;;;;;;;2.41;51.93;99375.48;123803;1102;64857;-76
2021/03/10 09:53:44;;;;;;;30.87;18.03;;;;;;;2.55;51.22;99378.58;123807;1102;64905;-75
2021/03/10 09:56:13;;;;;;;27.10;15.93;;;;;;;2.62;50.76;99374.87;123756;1102;64908;-76
2021/03/10 09:58:57;;;;;;;26.40;16.63;;;;;;;2.69;49.97;99374.72;123834;1102;64966;-75
2021/03/10 10:01:26;;;;;;;23.53;15.67;;;;;;;2.70;50.44;99379.92;123793;1102;64911;-75
2021/03/10 10:03:55;;;;;;;21.05;15.75;;;;;;;2.86;50.99;99380.33;123840;1102;64907;-75
2021/03/10 10:06:22;;;;;;;22.85;16.90;;;;;;;3.01;49.96;99371.13;123437;1102;64869;-76
2021/03/10 10:08:49;;;;;;;22.30;14.60;;;;;;;3.19;51.33;99370.56;123751;1102;65340;-76
2021/03/10 10:11:18;;;;;;;26.23;15.30;;;;;;;3.40;50.22;99365.55;123766;1102;64944;-76
2021/03/10 10:13:47;;;;;;;20.90;15.93;;;;;;;3.51;49.54;99366.91;123793;1102;64934;-76
2021/03/10 10:16:14;;;;;;;21.43;14.27;;;;;;;3.59;49.13;99369.30;123783;1102;64937;-75
2021/03/10 10:18:41;;;;;;;22.60;16.70;;;;;;;3.69;49.08;99362.82;123764;1102;64934;-76
2021/03/10 10:21:09;;;;;;;26.73;18.00;;;;;;;3.85;49.06;99357.89;123735;1102;64965;-76
2021/03/10 10:23:35;;;;;;;24.37;16.37;;;;;;;3.91;48.88;99359.46;123424;1102;65111;-76
2021/03/10 10:26:02;;;;;;;25.43;17.77;;;;;;;4.05;48.73;99358.98;123771;1102;64896;-76
2021/03/10 10:28:28;;;;;;;24.03;16.77;;;;;;;4.22;48.83;99356.62;123772;1102;64870;-76
2021/03/10 10:30:56;;;;;;;22.70;16.63;;;;;;;4.38;49.20;99355.16;123756;1102;64828;-76
2021/03/10 10:33:23;;;;;;;26.10;14.77;;;;;;;4.56;49.04;99356.28;123730;1102;64975;-76
2021/03/10 10:35:49;;;;;;;19.37;15.03;;;;;;;4.72;48.87;99358.36;123754;1102;65011;-75
2021/03/10 10:38:16;;;;;;;46.53;30.67;;;;;;;4.88;48.69;99359.50;123803;1102;64905;-76
2021/03/10 10:40:42;;;;;;;50.45;34.40;;;;;;;5.01;47.89;99357.25;123418;1102;64978;-76
2021/03/10 10:43:09;;;;;;;54.13;37.53;;;;;;;5.05;47.04;99351.80;123782;1102;64892;-75
2021/03/10 10:45:35;;;;;;;21.75;16.55;;;;;;;5.03;46.89;99358.92;123783;1102;65052;-76
2021/03/10 10:48:02;;;;;;;19.93;14.77;;;;;;;4.86;45.97;99363.97;123767;1102;64892;-76
2021/03/10 10:50:28;;;;;;;17.53;14.53;;;;;;;4.75;45.99;99351.17;123798;1101;64936;-75
2021/03/10 10:52:55;;;;;;;21.53;13.87;;;;;;;4.75;46.99;99348.53;123389;1104;65023;-75
2021/03/10 10:55:22;;;;;;;21.60;15.87;;;;;;;4.91;47.06;99347.95;123763;1102;64908;-76
2021/03/10 10:57:48;;;;;;;44.38;29.48;;;;;;;5.05;46.65;99346.52;123829;1101;65023;-76
2021/03/10 11:00:19;;;;;;;35.57;21.77;;;;;;;5.05;46.05;99345.63;123780;1102;64915;-76
2021/03/10 11:02:46;;;;;;;120.03;69.50;;;;;;;5.06;46.10;99348.22;123787;1102;64902;-76
2021/03/10 11:05:12;;;;;;;56.37;34.00;;;;;;;5.14;46.42;99349.72;123751;1101;64887;-76
2021/03/10 11:07:39;;;;;;;40.97;28.77;;;;;;;5.22;45.89;99351.13;123333;1102;64997;-75
2021/03/10 11:10:08;;;;;;;57.00;36.83;;;;;;;5.32;46.33;99356.92;123772;1101;65109;-76
2021/03/10 11:12:34;;;;;;;46.23;31.30;;;;;;;5.35;46.10;99353.30;123430;1102;64959;-75
2021/03/10 11:15:02;;;;;;;26.17;19.57;;;;;;;5.39;46.08;99353.09;123799;1102;64934;-75
2021/03/10 11:17:29;;;;;;;20.83;14.00;;;;;;;5.45;45.76;99349.33;123803;1102;64910;-76
2021/03/10 11:19:55;;;;;;;23.20;15.97;;;;;;;5.60;45.91;99347.86;123764;1102;65115;-76
2021/03/10 11:22:21;;;;;;;16.80;13.30;;;;;;;5.75;45.20;99349.88;123744;1102;65059;-77